sensor_id;sensor_type;location;lat;lon;timestamp;pressure;altitude;pressure_sealevel;temperature;humidity
38614;BME280;24369;49.480;8.488;2022-07-19T00:00:20;100707.34;;;33.78;20.22
38614;BME280;24369;49.480;8.488;2022-07-19T00:02:46;100837.56;;;34.71;19.27
38614;BME280;24369;49.480;8.488;2022-07-19T00:05:13;100473.22;;;32.14;20.07
38614;BME280;24369;49.480;8.488;2022-07-19T00:07:39;100725.34;;;33.69;20.33
38614;BME280;24369;49.480;8.488;2022-07-19T00:10:06;100752.72;;;33.95;20.38
38614;BME280;24369;49.480;8.488;2022-07-19T00:12:32;100712.53;;;33.75;20.08
38614;BME280;24369;49.480;8.488;2022-07-19T00:14:57;100829.06;;;34.27;20.70
38614;BME280;24369;49.480;8.488;2022-07-19T00:17:23;100350.72;;;30.97;20.61
38614;BME280;24369;49.480;8.488;2022-07-19T00:19:48;100590.78;;;32.90;20.44
38614;BME280;24369;49.480;8.488;2022-07-19T00:22:13;100346.81;;;31.20;20.95
38614;BME280;24369;49.480;8.488;2022-07-19T00:24:39;100598.59;;;32.14;21.29
38614;BME280;24369;49.480;8.488;2022-07-19T00:27:04;100534.56;;;32.21;21.14
38614;BME280;24369;49.480;8.488;2022-07-19T00:29:30;100818.63;;;34.03;21.13
38614;BME280;24369;49.480;8.488;2022-07-19T00:31:55;100790.66;;;33.76;20.78
38614;BME280;24369;49.480;8.488;2022-07-19T00:34:20;100624.16;;;33.13;20.22
38614;BME280;24369;49.480;8.488;2022-07-19T00:36:46;100568.22;;;32.42;20.91
38614;BME280;24369;49.480;8.488;2022-07-19T00:39:11;100808.22;;;33.95;20.39
38614;BME280;24369;49.480;8.488;2022-07-19T00:41:41;100685.06;;;33.24;20.96
38614;BME280;24369;49.480;8.488;2022-07-19T00:44:08;100715.00;;;32.98;21.12
38614;BME280;24369;49.480;8.488;2022-07-19T00:46:33;100814.72;;;33.74;21.29
38614;BME280;24369;49.480;8.488;2022-07-19T00:48:59;100783.84;;;33.63;20.98
38614;BME280;24369;49.480;8.488;2022-07-19T00:51:24;100496.56;;;31.99;21.10
38614;BME280;24369;49.480;8.488;2022-07-19T00:53:50;100233.81;;;30.64;20.74
38614;BME280;24369;49.480;8.488;2022-07-19T00:56:18;100836.47;;;34.21;20.45
38614;BME280;24369;49.480;8.488;2022-07-19T00:58:44;100719.91;;;33.64;20.68
38614;BME280;24369;49.480;8.488;2022-07-19T01:01:12;100545.22;;;32.28;21.06
38614;BME280;24369;49.480;8.488;2022-07-19T01:03:39;100587.34;;;32.53;21.46
38614;BME280;24369;49.480;8.488;2022-07-19T01:06:06;100621.06;;;32.36;21.37
38614;BME280;24369;49.480;8.488;2022-07-19T01:08:32;100655.06;;;32.71;21.40
38614;BME280;24369;49.480;8.488;2022-07-19T01:10:57;100660.72;;;33.12;20.93
38614;BME280;24369;49.480;8.488;2022-07-19T01:13:24;100816.75;;;34.04;21.19
38614;BME280;24369;49.480;8.488;2022-07-19T01:15:49;100286.22;;;30.55;21.53
38614;BME280;24369;49.480;8.488;2022-07-19T01:18:15;100669.47;;;32.56;22.17
38614;BME280;24369;49.480;8.488;2022-07-19T01:20:40;100649.34;;;32.25;22.11
38614;BME280;24369;49.480;8.488;2022-07-19T01:23:05;100803.88;;;33.26;22.31
38614;BME280;24369;49.480;8.488;2022-07-19T01:25:33;100425.28;;;31.01;22.44
38614;BME280;24369;49.480;8.488;2022-07-19T01:28:00;100607.28;;;31.46;22.50
38614;BME280;24369;49.480;8.488;2022-07-19T01:30:27;100764.25;;;32.81;22.56
38614;BME280;24369;49.480;8.488;2022-07-19T01:32:53;100804.41;;;33.28;22.45
38614;BME280;24369;49.480;8.488;2022-07-19T01:35:19;100843.22;;;33.35;22.22
38614;BME280;24369;49.480;8.488;2022-07-19T01:37:46;100814.22;;;33.19;22.85
38614;BME280;24369;49.480;8.488;2022-07-19T01:40:13;100800.31;;;33.31;22.74
38614;BME280;24369;49.480;8.488;2022-07-19T01:42:40;100809.91;;;33.33;22.98
38614;BME280;24369;49.480;8.488;2022-07-19T01:45:06;100811.00;;;33.37;22.78
38614;BME280;24369;49.480;8.488;2022-07-19T01:47:32;100289.03;;;30.11;22.54
38614;BME280;24369;49.480;8.488;2022-07-19T01:49:57;100742.34;;;33.08;22.48
38614;BME280;24369;49.480;8.488;2022-07-19T01:52:23;100863.34;;;33.72;22.58
38614;BME280;24369;49.480;8.488;2022-07-19T01:54:48;100640.94;;;32.79;22.66
38614;BME280;24369;49.480;8.488;2022-07-19T01:57:13;100742.63;;;33.07;22.53
38614;BME280;24369;49.480;8.488;2022-07-19T01:59:39;100806.09;;;33.39;23.25
38614;BME280;24369;49.480;8.488;2022-07-19T02:02:06;100801.72;;;33.38;23.28
38614;BME280;24369;49.480;8.488;2022-07-19T02:04:32;100692.59;;;31.84;23.46
38614;BME280;24369;49.480;8.488;2022-07-19T02:06:57;100844.72;;;33.11;23.18
38614;BME280;24369;49.480;8.488;2022-07-19T02:09:23;100509.22;;;31.14;23.63
38614;BME280;24369;49.480;8.488;2022-07-19T02:11:48;100601.28;;;31.76;23.86
38614;BME280;24369;49.480;8.488;2022-07-19T02:14:14;100489.06;;;31.10;23.93
38614;BME280;24369;49.480;8.488;2022-07-19T02:16:39;100443.19;;;30.64;23.97
38614;BME280;24369;49.480;8.488;2022-07-19T02:19:06;100727.25;;;32.48;23.40
38614;BME280;24369;49.480;8.488;2022-07-19T02:21:33;100780.59;;;33.18;23.39
38614;BME280;24369;49.480;8.488;2022-07-19T02:23:58;100673.34;;;32.28;23.23
38614;BME280;24369;49.480;8.488;2022-07-19T02:26:24;100568.88;;;31.80;23.15
38614;BME280;24369;49.480;8.488;2022-07-19T02:28:49;100195.22;;;29.49;23.72
38614;BME280;24369;49.480;8.488;2022-07-19T02:31:15;100586.63;;;31.50;23.80
38614;BME280;24369;49.480;8.488;2022-07-19T02:33:40;100715.25;;;32.17;24.05
38614;BME280;24369;49.480;8.488;2022-07-19T02:36:06;100650.09;;;31.83;24.05
38614;BME280;24369;49.480;8.488;2022-07-19T02:38:31;100766.75;;;32.45;24.11
38614;BME280;24369;49.480;8.488;2022-07-19T02:40:57;100820.44;;;32.77;24.12
38614;BME280;24369;49.480;8.488;2022-07-19T02:43:22;100439.53;;;30.10;24.48
38614;BME280;24369;49.480;8.488;2022-07-19T02:45:48;100531.38;;;30.52;24.52
38614;BME280;24369;49.480;8.488;2022-07-19T02:48:13;100665.06;;;31.31;24.91
38614;BME280;24369;49.480;8.488;2022-07-19T02:50:39;100730.34;;;31.70;24.87
38614;BME280;24369;49.480;8.488;2022-07-19T02:53:04;100844.84;;;32.30;25.29
38614;BME280;24369;49.480;8.488;2022-07-19T02:55:30;100221.50;;;28.49;25.02
38614;BME280;24369;49.480;8.488;2022-07-19T02:57:56;100329.88;;;29.33;25.08
38614;BME280;24369;49.480;8.488;2022-07-19T03:00:21;100819.84;;;32.38;24.86
38614;BME280;24369;49.480;8.488;2022-07-19T03:02:47;100712.94;;;31.27;24.82
38614;BME280;24369;49.480;8.488;2022-07-19T03:05:12;100276.66;;;29.10;24.66
38614;BME280;24369;49.480;8.488;2022-07-19T03:07:37;100613.13;;;31.11;24.55
38614;BME280;24369;49.480;8.488;2022-07-19T03:10:04;100799.38;;;32.35;24.86
38614;BME280;24369;49.480;8.488;2022-07-19T03:12:29;100513.53;;;30.17;25.71
38614;BME280;24369;49.480;8.488;2022-07-19T03:14:55;100467.72;;;30.26;25.31
38614;BME280;24369;49.480;8.488;2022-07-19T03:17:20;100649.03;;;31.08;25.99
38614;BME280;24369;49.480;8.488;2022-07-19T03:19:45;100737.38;;;31.22;25.49
38614;BME280;24369;49.480;8.488;2022-07-19T03:22:11;100641.38;;;30.83;25.74
38614;BME280;24369;49.480;8.488;2022-07-19T03:24:37;100669.84;;;31.41;25.21
38614;BME280;24369;49.480;8.488;2022-07-19T03:27:02;100424.34;;;29.53;25.60
38614;BME280;24369;49.480;8.488;2022-07-19T03:29:28;100815.84;;;31.91;25.51
38614;BME280;24369;49.480;8.488;2022-07-19T03:31:53;100815.56;;;31.93;25.45
38614;BME280;24369;49.480;8.488;2022-07-19T03:34:18;100391.13;;;29.46;25.13
38614;BME280;24369;49.480;8.488;2022-07-19T03:36:44;100810.22;;;32.03;24.81
38614;BME280;24369;49.480;8.488;2022-07-19T03:39:10;100735.41;;;31.62;24.74
38614;BME280;24369;49.480;8.488;2022-07-19T03:41:35;100504.19;;;29.91;25.31
38614;BME280;24369;49.480;8.488;2022-07-19T03:44:01;100837.50;;;31.81;24.89
38614;BME280;24369;49.480;8.488;2022-07-19T03:46:26;100689.72;;;31.20;25.25
38614;BME280;24369;49.480;8.488;2022-07-19T03:48:53;100591.88;;;30.42;25.39
38614;BME280;24369;49.480;8.488;2022-07-19T03:51:18;100372.09;;;29.07;25.33
38614;BME280;24369;49.480;8.488;2022-07-19T03:53:44;100687.34;;;31.01;24.97
38614;BME280;24369;49.480;8.488;2022-07-19T03:56:10;100714.56;;;31.28;24.59
38614;BME280;24369;49.480;8.488;2022-07-19T03:58:35;100664.34;;;31.36;23.78
38614;BME280;24369;49.480;8.488;2022-07-19T04:01:01;100784.88;;;32.02;23.92
38614;BME280;24369;49.480;8.488;2022-07-19T04:03:27;100364.41;;;29.38;23.75
38614;BME280;24369;49.480;8.488;2022-07-19T04:05:52;100666.63;;;31.22;24.42
38614;BME280;24369;49.480;8.488;2022-07-19T04:08:18;100485.13;;;30.25;24.34
38614;BME280;24369;49.480;8.488;2022-07-19T04:10:43;100808.34;;;32.03;24.56
38614;BME280;24369;49.480;8.488;2022-07-19T04:13:08;100532.94;;;30.26;24.62
38614;BME280;24369;49.480;8.488;2022-07-19T04:15:34;100467.38;;;29.61;24.60
38614;BME280;24369;49.480;8.488;2022-07-19T04:17:59;100814.81;;;31.97;24.07
38614;BME280;24369;49.480;8.488;2022-07-19T04:20:25;100703.44;;;31.52;24.33
38614;BME280;24369;49.480;8.488;2022-07-19T04:22:50;100822.19;;;32.24;24.14
38614;BME280;24369;49.480;8.488;2022-07-19T04:25:15;100657.69;;;31.27;23.86
38614;BME280;24369;49.480;8.488;2022-07-19T04:27:41;100529.72;;;29.90;24.42
38614;BME280;24369;49.480;8.488;2022-07-19T04:30:07;100772.38;;;31.79;24.69
38614;BME280;24369;49.480;8.488;2022-07-19T04:32:33;100564.66;;;30.59;24.54
38614;BME280;24369;49.480;8.488;2022-07-19T04:34:59;100812.19;;;31.86;23.62
38614;BME280;24369;49.480;8.488;2022-07-19T04:37:24;100696.16;;;31.57;24.02
38614;BME280;24369;49.480;8.488;2022-07-19T04:39:50;100679.03;;;31.35;24.34
38614;BME280;24369;49.480;8.488;2022-07-19T04:42:15;100443.69;;;29.96;24.27
38614;BME280;24369;49.480;8.488;2022-07-19T04:44:40;100399.22;;;29.80;24.27
38614;BME280;24369;49.480;8.488;2022-07-19T04:47:06;100718.13;;;31.78;23.56
38614;BME280;24369;49.480;8.488;2022-07-19T04:49:31;100695.28;;;31.30;23.76
38614;BME280;24369;49.480;8.488;2022-07-19T04:51:57;100840.66;;;32.17;23.03
38614;BME280;24369;49.480;8.488;2022-07-19T04:54:22;100733.66;;;31.77;23.72
38614;BME280;24369;49.480;8.488;2022-07-19T04:56:47;100416.16;;;29.87;23.82
38614;BME280;24369;49.480;8.488;2022-07-19T04:59:13;100707.84;;;31.85;23.96
38614;BME280;24369;49.480;8.488;2022-07-19T05:01:38;100622.03;;;31.28;23.34
38614;BME280;24369;49.480;8.488;2022-07-19T05:04:03;100445.25;;;30.30;23.36
38614;BME280;24369;49.480;8.488;2022-07-19T05:06:29;100318.19;;;29.72;23.19
38614;BME280;24369;49.480;8.488;2022-07-19T05:08:54;100716.69;;;32.30;22.99
38614;BME280;24369;49.480;8.488;2022-07-19T05:11:21;100784.66;;;32.36;23.24
38614;BME280;24369;49.480;8.488;2022-07-19T05:13:47;100769.09;;;32.37;23.63
38614;BME280;24369;49.480;8.488;2022-07-19T05:16:12;100487.44;;;30.82;23.41
38614;BME280;24369;49.480;8.488;2022-07-19T05:18:38;100745.88;;;32.29;23.48
38614;BME280;24369;49.480;8.488;2022-07-19T05:21:03;100390.94;;;30.35;23.22
38614;BME280;24369;49.480;8.488;2022-07-19T05:23:28;100440.91;;;30.56;23.40
38614;BME280;24369;49.480;8.488;2022-07-19T05:25:54;100733.34;;;32.65;23.34
38614;BME280;24369;49.480;8.488;2022-07-19T05:28:19;100860.22;;;33.00;23.33
38614;BME280;24369;49.480;8.488;2022-07-19T05:30:44;100647.59;;;32.09;23.02
38614;BME280;24369;49.480;8.488;2022-07-19T05:33:10;100622.97;;;31.93;23.06
38614;BME280;24369;49.480;8.488;2022-07-19T05:35:35;100708.69;;;32.45;22.73
38614;BME280;24369;49.480;8.488;2022-07-19T05:38:01;100827.00;;;33.18;22.56
38614;BME280;24369;49.480;8.488;2022-07-19T05:40:26;100812.25;;;33.14;22.54
38614;BME280;24369;49.480;8.488;2022-07-19T05:42:52;100560.16;;;31.78;22.49
38614;BME280;24369;49.480;8.488;2022-07-19T05:45:17;100441.91;;;30.99;22.60
38614;BME280;24369;49.480;8.488;2022-07-19T05:47:43;100657.84;;;31.96;22.00
38614;BME280;24369;49.480;8.488;2022-07-19T05:50:08;100645.22;;;32.22;22.25
38614;BME280;24369;49.480;8.488;2022-07-19T05:52:34;100565.19;;;31.91;22.29
38614;BME280;24369;49.480;8.488;2022-07-19T05:54:59;100313.03;;;30.46;22.13
38614;BME280;24369;49.480;8.488;2022-07-19T05:57:25;100648.78;;;32.65;21.99
38614;BME280;24369;49.480;8.488;2022-07-19T05:59:50;100726.97;;;32.92;21.71
38614;BME280;24369;49.480;8.488;2022-07-19T06:02:15;100697.72;;;32.87;21.57
38614;BME280;24369;49.480;8.488;2022-07-19T06:04:41;100801.88;;;33.79;21.69
38614;BME280;24369;49.480;8.488;2022-07-19T06:07:07;100781.63;;;33.60;21.45
38614;BME280;24369;49.480;8.488;2022-07-19T06:09:32;100454.31;;;31.54;21.49
38614;BME280;24369;49.480;8.488;2022-07-19T06:11:58;100746.44;;;33.11;21.38
38614;BME280;24369;49.480;8.488;2022-07-19T06:14:23;100486.94;;;31.87;21.37
38614;BME280;24369;49.480;8.488;2022-07-19T06:16:48;100820.03;;;34.16;21.13
38614;BME280;24369;49.480;8.488;2022-07-19T06:19:14;100709.44;;;33.45;20.90
38614;BME280;24369;49.480;8.488;2022-07-19T06:21:39;100603.28;;;32.76;21.00
38614;BME280;24369;49.480;8.488;2022-07-19T06:24:05;100611.72;;;32.69;20.70
38614;BME280;24369;49.480;8.488;2022-07-19T06:26:30;100675.28;;;33.38;20.61
38614;BME280;24369;49.480;8.488;2022-07-19T06:28:56;100830.75;;;34.69;20.55
38614;BME280;24369;49.480;8.488;2022-07-19T06:31:22;100674.00;;;33.86;20.20
38614;BME280;24369;49.480;8.488;2022-07-19T06:33:49;100399.72;;;32.44;20.31
38614;BME280;24369;49.480;8.488;2022-07-19T06:36:15;100693.91;;;34.79;19.63
38614;BME280;24369;49.480;8.488;2022-07-19T06:38:41;100824.72;;;36.22;18.94
38614;BME280;24369;49.480;8.488;2022-07-19T06:41:07;100492.38;;;34.33;18.35
38614;BME280;24369;49.480;8.488;2022-07-19T06:43:33;100718.50;;;35.49;18.34
38614;BME280;24369;49.480;8.488;2022-07-19T06:45:58;100742.38;;;35.43;18.44
38614;BME280;24369;49.480;8.488;2022-07-19T06:48:24;100676.50;;;35.14;18.75
38614;BME280;24369;49.480;8.488;2022-07-19T06:50:49;100647.63;;;34.77;18.86
38614;BME280;24369;49.480;8.488;2022-07-19T06:53:15;100669.34;;;35.23;18.42
38614;BME280;24369;49.480;8.488;2022-07-19T06:55:40;100729.31;;;35.25;18.38
38614;BME280;24369;49.480;8.488;2022-07-19T06:58:06;100824.56;;;36.08;18.29
38614;BME280;24369;49.480;8.488;2022-07-19T07:00:32;100709.41;;;35.04;18.57
38614;BME280;24369;49.480;8.488;2022-07-19T07:02:57;100428.41;;;33.44;18.60
38614;BME280;24369;49.480;8.488;2022-07-19T07:05:23;100315.72;;;32.57;18.52
38614;BME280;24369;49.480;8.488;2022-07-19T07:07:48;100597.97;;;34.34;18.64
38614;BME280;24369;49.480;8.488;2022-07-19T07:10:16;100847.56;;;36.12;18.56
38614;BME280;24369;49.480;8.488;2022-07-19T07:12:42;100738.78;;;35.48;18.32
38614;BME280;24369;49.480;8.488;2022-07-19T07:15:08;100400.31;;;33.23;19.00
38614;BME280;24369;49.480;8.488;2022-07-19T07:17:35;100734.13;;;35.48;18.65
38614;BME280;24369;49.480;8.488;2022-07-19T07:20:02;100736.59;;;35.45;18.39
38614;BME280;24369;49.480;8.488;2022-07-19T07:22:27;100434.69;;;33.60;18.35
38614;BME280;24369;49.480;8.488;2022-07-19T07:24:53;100381.44;;;33.42;18.55
38614;BME280;24369;49.480;8.488;2022-07-19T07:27:18;100682.03;;;35.09;18.28
38614;BME280;24369;49.480;8.488;2022-07-19T07:29:43;100732.66;;;35.71;18.37
38614;BME280;24369;49.480;8.488;2022-07-19T07:32:09;100673.66;;;35.35;18.11
38614;BME280;24369;49.480;8.488;2022-07-19T07:34:34;100401.38;;;33.58;17.69
38614;BME280;24369;49.480;8.488;2022-07-19T07:36:59;100694.88;;;36.03;17.14
38614;BME280;24369;49.480;8.488;2022-07-19T07:39:25;100647.22;;;35.59;17.03
38614;BME280;24369;49.480;8.488;2022-07-19T07:41:50;100772.63;;;36.80;16.96
38614;BME280;24369;49.480;8.488;2022-07-19T07:44:16;100835.72;;;37.14;16.53
38614;BME280;24369;49.480;8.488;2022-07-19T07:46:41;100508.34;;;35.20;16.60
38614;BME280;24369;49.480;8.488;2022-07-19T07:49:06;100798.84;;;37.63;15.90
38614;BME280;24369;49.480;8.488;2022-07-19T07:51:32;100781.56;;;37.39;16.10
38614;BME280;24369;49.480;8.488;2022-07-19T07:54:00;100723.66;;;36.87;16.37
38614;BME280;24369;49.480;8.488;2022-07-19T07:56:26;100828.72;;;37.51;16.42
38614;BME280;24369;49.480;8.488;2022-07-19T07:58:51;100667.38;;;36.37;16.42
38614;BME280;24369;49.480;8.488;2022-07-19T08:01:17;100524.03;;;35.44;16.60
38614;BME280;24369;49.480;8.488;2022-07-19T08:03:42;100820.28;;;38.04;16.33
38614;BME280;24369;49.480;8.488;2022-07-19T08:06:08;100723.63;;;37.16;16.00
38614;BME280;24369;49.480;8.488;2022-07-19T08:08:34;100719.06;;;37.69;16.08
38614;BME280;24369;49.480;8.488;2022-07-19T08:10:59;100704.56;;;37.63;16.00
38614;BME280;24369;49.480;8.488;2022-07-19T08:13:24;100758.09;;;37.71;16.22
38614;BME280;24369;49.480;8.488;2022-07-19T08:15:50;100750.88;;;38.26;15.94
38614;BME280;24369;49.480;8.488;2022-07-19T08:18:16;100815.88;;;38.41;15.75
38614;BME280;24369;49.480;8.488;2022-07-19T08:20:42;100640.97;;;37.32;15.77
38614;BME280;24369;49.480;8.488;2022-07-19T08:23:08;100689.38;;;38.36;15.41
38614;BME280;24369;49.480;8.488;2022-07-19T08:25:33;100812.41;;;38.82;15.44
38614;BME280;24369;49.480;8.488;2022-07-19T08:28:00;100566.25;;;36.97;15.79
38614;BME280;24369;49.480;8.488;2022-07-19T08:30:26;100530.19;;;36.61;15.58
38614;BME280;24369;49.480;8.488;2022-07-19T08:32:51;100768.00;;;38.04;15.58
38614;BME280;24369;49.480;8.488;2022-07-19T08:35:17;100788.97;;;38.52;15.12
38614;BME280;24369;49.480;8.488;2022-07-19T08:37:42;100615.75;;;37.11;15.77
38614;BME280;24369;49.480;8.488;2022-07-19T08:40:08;100794.53;;;38.33;15.68
38614;BME280;24369;49.480;8.488;2022-07-19T08:42:34;100578.06;;;36.74;15.56
38614;BME280;24369;49.480;8.488;2022-07-19T08:45:00;100556.41;;;36.48;15.75
38614;BME280;24369;49.480;8.488;2022-07-19T08:47:29;100732.88;;;38.01;15.39
38614;BME280;24369;49.480;8.488;2022-07-19T08:49:58;100784.28;;;38.39;15.33
38614;BME280;24369;49.480;8.488;2022-07-19T08:52:24;100785.59;;;38.41;14.69
38614;BME280;24369;49.480;8.488;2022-07-19T08:54:49;100646.81;;;37.82;14.33
38614;BME280;24369;49.480;8.488;2022-07-19T08:57:15;100570.28;;;38.30;14.12
38614;BME280;24369;49.480;8.488;2022-07-19T08:59:59;100650.78;;;39.78;12.97
38614;BME280;24369;49.480;8.488;2022-07-19T09:02:24;100803.00;;;39.80;13.39
38614;BME280;24369;49.480;8.488;2022-07-19T09:05:04;100781.41;;;39.95;13.40
38614;BME280;24369;49.480;8.488;2022-07-19T09:07:36;100780.19;;;39.88;13.42
38614;BME280;24369;49.480;8.488;2022-07-19T09:10:19;100753.53;;;39.83;13.59
38614;BME280;24369;49.480;8.488;2022-07-19T09:13:08;100769.97;;;40.11;13.12
38614;BME280;24369;49.480;8.488;2022-07-19T09:18:32;100715.63;;;39.53;13.35
38614;BME280;24369;49.480;8.488;2022-07-19T09:21:04;100751.81;;;39.23;13.66
38614;BME280;24369;49.480;8.488;2022-07-19T09:23:30;100744.38;;;39.24;13.45
38614;BME280;24369;49.480;8.488;2022-07-19T09:25:57;100761.59;;;39.43;13.27
38614;BME280;24369;49.480;8.488;2022-07-19T09:28:24;100717.03;;;39.14;13.69
38614;BME280;24369;49.480;8.488;2022-07-19T09:30:54;100551.84;;;38.03;13.07
38614;BME280;24369;49.480;8.488;2022-07-19T09:33:28;100542.19;;;37.73;12.65
38614;BME280;24369;49.480;8.488;2022-07-19T09:35:58;100753.69;;;38.87;12.96
38614;BME280;24369;49.480;8.488;2022-07-19T09:38:32;100669.09;;;38.60;13.20
38614;BME280;24369;49.480;8.488;2022-07-19T09:43:59;100752.22;;;39.67;12.86
38614;BME280;24369;49.480;8.488;2022-07-19T09:46:41;100621.47;;;38.73;13.37
38614;BME280;24369;49.480;8.488;2022-07-19T09:49:14;100710.06;;;39.44;12.94
38614;BME280;24369;49.480;8.488;2022-07-19T09:51:47;100510.69;;;37.98;12.97
38614;BME280;24369;49.480;8.488;2022-07-19T09:54:19;100744.28;;;39.01;12.68
38614;BME280;24369;49.480;8.488;2022-07-19T09:56:45;100256.28;;;36.44;11.90
38614;BME280;24369;49.480;8.488;2022-07-19T09:59:12;100792.66;;;39.35;12.13
38614;BME280;24369;49.480;8.488;2022-07-19T10:01:38;100465.75;;;38.03;11.46
38614;BME280;24369;49.480;8.488;2022-07-19T10:04:27;100747.13;;;39.38;11.90
38614;BME280;24369;49.480;8.488;2022-07-19T10:06:53;100741.59;;;39.24;11.92
38614;BME280;24369;49.480;8.488;2022-07-19T10:09:21;100733.63;;;39.36;11.83
38614;BME280;24369;49.480;8.488;2022-07-19T10:11:47;100670.41;;;39.03;12.06
38614;BME280;24369;49.480;8.488;2022-07-19T10:14:13;100750.50;;;39.71;11.77
38614;BME280;24369;49.480;8.488;2022-07-19T10:17:14;100728.00;;;39.78;11.52
38614;BME280;24369;49.480;8.488;2022-07-19T10:19:45;100682.03;;;39.14;12.14
38614;BME280;24369;49.480;8.488;2022-07-19T10:22:17;100719.38;;;39.57;12.08
38614;BME280;24369;49.480;8.488;2022-07-19T10:32:30;100517.44;;;38.84;11.42
38614;BME280;24369;49.480;8.488;2022-07-19T10:35:18;100708.66;;;40.45;11.12
38614;BME280;24369;49.480;8.488;2022-07-19T10:37:49;100628.34;;;39.48;11.04
38614;BME280;24369;49.480;8.488;2022-07-19T10:40:45;100656.97;;;40.06;11.30
38614;BME280;24369;49.480;8.488;2022-07-19T10:43:15;100664.38;;;39.52;11.28
38614;BME280;24369;49.480;8.488;2022-07-19T10:48:42;100700.69;;;40.12;10.95
38614;BME280;24369;49.480;8.488;2022-07-19T10:51:12;100422.94;;;38.10;11.30
38614;BME280;24369;49.480;8.488;2022-07-19T10:56:20;100694.63;;;40.64;11.20
38614;BME280;24369;49.480;8.488;2022-07-19T11:01:18;100585.06;;;40.02;11.16
38614;BME280;24369;49.480;8.488;2022-07-19T11:03:45;100683.41;;;40.69;11.26
38614;BME280;24369;49.480;8.488;2022-07-19T11:06:19;100700.47;;;40.31;11.65
38614;BME280;24369;49.480;8.488;2022-07-19T11:08:45;100666.84;;;40.29;10.97
38614;BME280;24369;49.480;8.488;2022-07-19T11:11:18;100594.38;;;39.84;11.13
38614;BME280;24369;49.480;8.488;2022-07-19T11:13:55;100623.38;;;40.43;10.86
38614;BME280;24369;49.480;8.488;2022-07-19T11:16:24;100000.13;;;36.40;11.26
38614;BME280;24369;49.480;8.488;2022-07-19T11:18:50;100185.78;;;37.55;11.27
38614;BME280;24369;49.480;8.488;2022-07-19T11:21:16;100513.75;;;39.33;11.47
38614;BME280;24369;49.480;8.488;2022-07-19T11:23:42;99741.34;;;34.75;11.26
38614;BME280;24369;49.480;8.488;2022-07-19T11:26:16;100647.75;;;40.90;10.49
38614;BME280;24369;49.480;8.488;2022-07-19T11:28:50;100640.97;;;41.22;10.35
38614;BME280;24369;49.480;8.488;2022-07-19T11:31:18;100562.72;;;40.78;10.77
38614;BME280;24369;49.480;8.488;2022-07-19T11:33:45;100644.53;;;41.05;10.76
38614;BME280;24369;49.480;8.488;2022-07-19T11:36:12;100642.84;;;40.78;10.56
38614;BME280;24369;49.480;8.488;2022-07-19T11:38:39;100627.75;;;40.84;10.81
38614;BME280;24369;49.480;8.488;2022-07-19T11:43:55;100563.84;;;40.60;10.35
38614;BME280;24369;49.480;8.488;2022-07-19T11:46:23;100616.84;;;40.97;10.16
38614;BME280;24369;49.480;8.488;2022-07-19T11:48:49;100617.56;;;41.11;9.89
38614;BME280;24369;49.480;8.488;2022-07-19T11:51:15;100350.09;;;39.52;10.53
38614;BME280;24369;49.480;8.488;2022-07-19T11:53:41;100354.88;;;39.77;10.17
38614;BME280;24369;49.480;8.488;2022-07-19T11:56:29;100352.50;;;40.02;10.52
38614;BME280;24369;49.480;8.488;2022-07-19T11:58:56;100601.59;;;41.25;10.25
38614;BME280;24369;49.480;8.488;2022-07-19T12:01:33;100498.72;;;40.67;10.57
38614;BME280;24369;49.480;8.488;2022-07-19T12:04:07;100585.19;;;41.55;10.31
38614;BME280;24369;49.480;8.488;2022-07-19T12:06:39;100453.81;;;40.97;9.84
38614;BME280;24369;49.480;8.488;2022-07-19T12:09:16;100586.38;;;41.83;9.98
38614;BME280;24369;49.480;8.488;2022-07-19T12:11:43;100561.44;;;41.28;9.74
38614;BME280;24369;49.480;8.488;2022-07-19T12:14:23;100587.53;;;41.82;9.90
38614;BME280;24369;49.480;8.488;2022-07-19T12:16:51;100413.06;;;40.76;9.55
38614;BME280;24369;49.480;8.488;2022-07-19T12:19:33;100530.47;;;40.30;9.58
38614;BME280;24369;49.480;8.488;2022-07-19T12:21:59;100578.31;;;41.61;9.84
38614;BME280;24369;49.480;8.488;2022-07-19T12:24:28;100576.63;;;41.77;9.55
38614;BME280;24369;49.480;8.488;2022-07-19T12:27:04;100292.13;;;39.91;9.72
38614;BME280;24369;49.480;8.488;2022-07-19T12:29:33;100258.00;;;40.05;9.48
38614;BME280;24369;49.480;8.488;2022-07-19T12:32:12;100344.22;;;40.45;9.44
38614;BME280;24369;49.480;8.488;2022-07-19T12:34:49;100362.22;;;40.77;9.41
38614;BME280;24369;49.480;8.488;2022-07-19T12:42:22;100116.91;;;39.33;9.54
38614;BME280;24369;49.480;8.488;2022-07-19T12:44:48;100509.78;;;41.75;9.24
38614;BME280;24369;49.480;8.488;2022-07-19T12:47:14;100508.56;;;41.47;9.21
38614;BME280;24369;49.480;8.488;2022-07-19T12:49:44;100546.16;;;41.48;9.67
38614;BME280;24369;49.480;8.488;2022-07-19T12:52:10;100384.66;;;40.67;9.07
38614;BME280;24369;49.480;8.488;2022-07-19T12:54:35;100343.72;;;40.52;9.19
38614;BME280;24369;49.480;8.488;2022-07-19T12:57:01;100414.69;;;40.95;8.92
38614;BME280;24369;49.480;8.488;2022-07-19T12:59:26;100534.91;;;41.53;8.91
38614;BME280;24369;49.480;8.488;2022-07-19T13:02:04;100527.50;;;41.74;8.72
38614;BME280;24369;49.480;8.488;2022-07-19T13:04:29;100370.06;;;41.22;8.92
38614;BME280;24369;49.480;8.488;2022-07-19T13:06:54;100542.13;;;42.51;8.73
38614;BME280;24369;49.480;8.488;2022-07-19T13:09:20;100379.97;;;41.32;9.00
38614;BME280;24369;49.480;8.488;2022-07-19T13:11:45;100537.19;;;41.98;8.96
38614;BME280;24369;49.480;8.488;2022-07-19T13:14:11;100310.28;;;40.44;9.23
38614;BME280;24369;49.480;8.488;2022-07-19T13:16:37;100526.69;;;42.12;9.30
38614;BME280;24369;49.480;8.488;2022-07-19T13:19:02;100422.91;;;41.68;9.30